createdAt,value
2023-03-29T00:01:12.018Z,93.59
2023-03-29T00:04:03.051Z,93.82
2023-03-29T00:06:36.756Z,93.68
2023-03-29T00:09:20.010Z,93.07
2023-03-29T00:11:53.884Z,92.55
2023-03-29T00:14:24.780Z,92.41
2023-03-29T00:17:05.424Z,92.16
2023-03-29T00:19:56.247Z,91.36
2023-03-29T00:22:34.319Z,91.27
2023-03-29T00:25:19.072Z,90.32
2023-03-29T00:27:52.003Z,89.86
2023-03-29T00:30:25.376Z,89.97
2023-03-29T00:33:16.422Z,89.73
2023-03-29T00:35:58.210Z,89.42
2023-03-29T00:38:32.081Z,89.72
2023-03-29T00:41:03.948Z,89.35
2023-03-29T00:43:58.724Z,89.04
2023-03-29T00:46:34.954Z,88.21
2023-03-29T00:49:15.349Z,88.46
2023-03-29T00:51:49.141Z,88.04
2023-03-29T00:54:20.629Z,88.17
2023-03-29T00:56:53.152Z,87.76
2023-03-29T00:59:35.750Z,87.71
2023-03-29T01:02:10.392Z,87.54
2023-03-29T01:04:54.293Z,87.24
2023-03-29T01:07:53.818Z,86.94
2023-03-29T01:10:32.330Z,86.64
2023-03-29T01:13:09.446Z,86.22
2023-03-29T01:15:51.227Z,86.11
2023-03-29T01:18:23.055Z,86.13
2023-03-29T01:21:21.304Z,86.02
2023-03-29T01:24:30.640Z,85.75
2023-03-29T01:27:03.320Z,85.78
2023-03-29T01:29:39.076Z,85.80
2023-03-29T01:32:18.461Z,85.91
2023-03-29T01:34:56.557Z,85.87
2023-03-29T01:37:53.024Z,85.68
2023-03-29T01:40:31.105Z,86.05
2023-03-29T01:43:12.295Z,86.13
2023-03-29T01:46:01.399Z,86.09
2023-03-29T01:48:48.137Z,86.09
2023-03-29T01:51:23.773Z,86.40
2023-03-29T01:54:01.596Z,86.11
2023-03-29T01:56:41.219Z,85.84
2023-03-29T01:59:18.411Z,85.81
2023-03-29T02:01:53.692Z,85.50
2023-03-29T02:04:35.365Z,85.32
2023-03-29T02:07:14.135Z,85.43
2023-03-29T02:09:46.198Z,85.23
2023-03-29T02:12:18.236Z,85.40
2023-03-29T02:14:49.302Z,84.89
2023-03-29T02:17:25.091Z,84.94
2023-03-29T02:20:09.655Z,84.67
2023-03-29T02:22:48.026Z,84.88
2023-03-29T02:25:22.600Z,84.98
2023-03-29T02:27:54.330Z,84.71
2023-03-29T02:30:31.434Z,84.60
2023-03-29T02:33:10.633Z,84.43
2023-03-29T02:35:48.441Z,84.43
2023-03-29T02:38:19.247Z,84.35
2023-03-29T02:40:50.153Z,84.53
2023-03-29T02:43:25.856Z,84.34
2023-03-29T02:45:57.659Z,84.60
2023-03-29T02:48:47.933Z,84.22
2023-03-29T02:51:21.840Z,84.55
2023-03-29T02:54:06.245Z,83.92
2023-03-29T02:56:45.145Z,83.45
2023-03-29T02:59:20.659Z,82.74
2023-03-29T03:02:02.031Z,83.14
2023-03-29T03:04:31.412Z,82.90
2023-03-29T03:07:22.131Z,82.93
2023-03-29T03:10:01.739Z,82.95
2023-03-29T03:12:46.063Z,83.51
2023-03-29T03:15:16.827Z,84.03
2023-03-29T03:17:52.749Z,84.20
2023-03-29T03:20:32.516Z,84.47
2023-03-29T03:23:08.999Z,84.91
2023-03-29T03:25:50.762Z,85.26
2023-03-29T03:28:41.584Z,86.20
2023-03-29T03:31:25.967Z,86.16
2023-03-29T03:34:17.748Z,86.37
2023-03-29T03:37:12.233Z,86.33
2023-03-29T03:39:53.653Z,86.58
2023-03-29T03:42:43.126Z,87.19
2023-03-29T03:45:19.689Z,87.11
2023-03-29T03:48:09.798Z,87.30
2023-03-29T03:50:53.970Z,87.89
2023-03-29T03:53:36.556Z,88.29
2023-03-29T03:56:29.985Z,88.15
2023-03-29T03:59:07.075Z,87.81
2023-03-29T04:01:43.674Z,87.81
2023-03-29T04:04:37.304Z,87.86
2023-03-29T04:07:13.183Z,88.33
2023-03-29T04:10:19.104Z,88.22
2023-03-29T04:13:12.912Z,88.42
2023-03-29T04:16:07.416Z,88.42
2023-03-29T04:18:58.399Z,88.55
2023-03-29T04:21:49.628Z,88.58
2023-03-29T04:24:30.318Z,88.55
2023-03-29T04:27:19.841Z,88.72
2023-03-29T04:30:00.874Z,88.74
2023-03-29T04:32:52.163Z,88.41
2023-03-29T04:35:43.674Z,88.47
2023-03-29T04:38:24.065Z,88.64
2023-03-29T04:41:15.519Z,88.61
2023-03-29T04:44:12.425Z,89.00
2023-03-29T04:46:48.013Z,89.11
2023-03-29T04:49:38.885Z,89.46
2023-03-29T04:52:12.531Z,89.12
2023-03-29T04:54:43.194Z,89.05
2023-03-29T04:57:39.883Z,89.10
2023-03-29T05:00:27.347Z,89.39
2023-03-29T05:03:16.620Z,89.30
2023-03-29T05:06:22.645Z,89.25
2023-03-29T05:09:17.122Z,89.22
2023-03-29T05:12:06.633Z,88.84
2023-03-29T05:14:57.555Z,88.05
2023-03-29T05:17:29.975Z,87.79
2023-03-29T05:20:09.529Z,86.47
2023-03-29T05:22:40.806Z,85.03
2023-03-29T05:25:20.915Z,82.87
2023-03-29T05:28:11.770Z,82.57
2023-03-29T05:31:02.603Z,82.01
2023-03-29T05:33:43.007Z,80.61
2023-03-29T05:36:26.917Z,79.61
2023-03-29T05:39:01.923Z,78.41
2023-03-29T05:41:33.594Z,77.77
2023-03-29T05:44:36.780Z,77.31
2023-03-29T05:47:14.934Z,76.11
2023-03-29T05:49:55.609Z,76.29
2023-03-29T05:52:28.790Z,75.61
2023-03-29T05:55:24.274Z,76.06
2023-03-29T05:58:02.549Z,75.79
2023-03-29T06:00:44.169Z,74.46
2023-03-29T06:03:44.046Z,74.47
2023-03-29T06:06:28.912Z,74.42
2023-03-29T06:09:20.080Z,74.47
2023-03-29T06:12:20.134Z,74.32
2023-03-29T06:15:14.453Z,74.49
2023-03-29T06:18:02.264Z,73.95
2023-03-29T06:20:36.938Z,74.00
2023-03-29T06:23:28.232Z,73.11
2023-03-29T06:26:10.780Z,72.49
2023-03-29T06:28:53.121Z,71.95
2023-03-29T06:31:26.469Z,72.91
2023-03-29T06:33:59.985Z,71.01
2023-03-29T06:36:57.636Z,71.55
2023-03-29T06:39:42.378Z,71.56
2023-03-29T06:42:33.190Z,71.43
2023-03-29T06:45:25.318Z,70.56
2023-03-29T06:48:00.583Z,70.22
2023-03-29T06:50:52.310Z,70.63
2023-03-29T06:53:37.904Z,70.32
2023-03-29T06:56:30.003Z,70.81
2023-03-29T06:59:18.170Z,70.54
2023-03-29T07:02:12.615Z,69.52
2023-03-29T07:04:50.478Z,69.22
2023-03-29T07:07:53.695Z,68.74
2023-03-29T07:10:34.710Z,68.26
2023-03-29T07:13:34.916Z,67.75
2023-03-29T07:16:26.386Z,67.56
2023-03-29T07:19:03.835Z,67.42
2023-03-29T07:22:03.535Z,67.80
2023-03-29T07:25:01.015Z,67.00
2023-03-29T07:27:33.578Z,66.69
2023-03-29T07:30:30.270Z,66.57
2023-03-29T07:33:25.313Z,66.40
2023-03-29T07:36:02.084Z,65.84
2023-03-29T07:38:41.869Z,65.66
2023-03-29T07:41:16.940Z,65.34
2023-03-29T07:43:54.357Z,65.34
2023-03-29T07:46:29.468Z,65.24
2023-03-29T07:49:03.701Z,64.26
2023-03-29T07:51:44.595Z,64.12
2023-03-29T07:54:17.903Z,63.92
2023-03-29T07:57:17.839Z,64.38
2023-03-29T07:59:55.360Z,65.01
2023-03-29T08:02:29.837Z,64.56
2023-03-29T08:05:02.324Z,64.31
2023-03-29T08:08:12.367Z,63.70
2023-03-29T08:10:51.974Z,64.18
2023-03-29T08:13:34.683Z,64.93
2023-03-29T08:16:29.951Z,64.90
2023-03-29T08:19:09.071Z,64.71
2023-03-29T08:22:18.368Z,64.35
2023-03-29T08:25:12.193Z,64.98
2023-03-29T08:27:47.354Z,65.14
2023-03-29T08:30:21.172Z,64.12
2023-03-29T08:32:55.266Z,63.91
2023-03-29T08:35:29.137Z,63.45
2023-03-29T08:38:23.790Z,63.53
2023-03-29T08:41:23.381Z,64.55
2023-03-29T08:44:09.636Z,64.06
2023-03-29T08:47:11.645Z,64.59
2023-03-29T08:49:49.471Z,63.85
2023-03-29T08:52:25.274Z,64.17
2023-03-29T08:54:59.714Z,64.71
2023-03-29T08:57:58.634Z,63.75
2023-03-29T09:00:38.881Z,63.37
2023-03-29T09:03:19.396Z,62.66
2023-03-29T09:05:54.567Z,62.62
2023-03-29T09:08:29.123Z,62.60
2023-03-29T09:11:13.710Z,62.88
2023-03-29T09:13:53.065Z,63.39
2023-03-29T09:16:32.518Z,63.54
2023-03-29T09:19:14.656Z,63.19
2023-03-29T09:21:50.790Z,63.34
2023-03-29T09:24:37.610Z,63.48
2023-03-29T09:27:25.205Z,63.06
2023-03-29T09:30:08.762Z,63.32
2023-03-29T09:33:06.064Z,63.46
2023-03-29T09:36:06.295Z,63.24
2023-03-29T09:38:42.453Z,63.06
2023-03-29T09:41:26.672Z,62.78
2023-03-29T09:44:02.044Z,63.06
2023-03-29T09:46:57.780Z,63.52
2023-03-29T09:49:37.373Z,64.20
2023-03-29T09:52:13.978Z,63.69
2023-03-29T09:55:03.781Z,64.60
2023-03-29T09:58:00.336Z,64.69
2023-03-29T10:00:44.811Z,65.21
2023-03-29T10:03:23.100Z,65.44
2023-03-29T10:06:15.252Z,65.58
2023-03-29T10:08:57.574Z,65.03
2023-03-29T10:11:35.105Z,64.66
2023-03-29T10:14:13.549Z,64.72
2023-03-29T10:16:47.726Z,64.17
2023-03-29T10:19:23.104Z,63.44
2023-03-29T10:22:00.639Z,62.76
2023-03-29T10:24:34.424Z,62.15
2023-03-29T10:27:09.125Z,61.77
2023-03-29T10:29:42.706Z,61.04
2023-03-29T10:32:29.318Z,61.14
2023-03-29T10:35:15.957Z,60.97
2023-03-29T10:37:50.890Z,60.23
2023-03-29T10:40:28.796Z,59.90
2023-03-29T10:43:12.333Z,58.95
2023-03-29T10:45:43.892Z,57.24
2023-03-29T10:48:19.932Z,56.37
2023-03-29T10:50:53.753Z,55.34
2023-03-29T10:53:27.677Z,55.07
2023-03-29T10:56:11.190Z,54.02
2023-03-29T10:58:56.803Z,53.50
2023-03-29T11:01:33.405Z,53.55
2023-03-29T11:04:27.094Z,52.59
2023-03-29T11:07:17.602Z,51.65
2023-03-29T11:09:57.259Z,49.62
2023-03-29T11:12:35.908Z,49.12
2023-03-29T11:15:29.536Z,49.28
2023-03-29T11:18:17.336Z,47.77
2023-03-29T11:21:00.524Z,48.10
2023-03-29T11:23:42.132Z,48.37
2023-03-29T11:26:15.708Z,48.13
2023-03-29T11:28:53.175Z,48.51
2023-03-29T11:31:38.841Z,48.66
2023-03-29T11:34:29.636Z,48.10
2023-03-29T11:37:07.826Z,48.64
2023-03-29T11:39:46.753Z,48.21
2023-03-29T11:42:21.402Z,47.37
2023-03-29T11:44:55.934Z,48.06
2023-03-29T11:47:31.336Z,49.31
2023-03-29T11:50:06.575Z,49.12
2023-03-29T11:52:41.506Z,48.95
2023-03-29T11:55:17.287Z,49.51
2023-03-29T11:57:52.756Z,47.84
2023-03-29T12:00:29.108Z,48.28
2023-03-29T12:03:05.124Z,47.49
2023-03-29T12:05:43.088Z,47.25
2023-03-29T12:08:19.255Z,46.46
2023-03-29T12:10:54.292Z,46.31
2023-03-29T12:13:29.738Z,46.52
2023-03-29T12:16:13.841Z,46.27
2023-03-29T12:18:50.497Z,46.39
2023-03-29T12:21:24.049Z,46.92
2023-03-29T12:23:56.445Z,46.61
2023-03-29T12:26:35.392Z,46.83
2023-03-29T12:29:21.763Z,46.46
2023-03-29T12:32:02.882Z,46.71
2023-03-29T12:34:59.826Z,47.00
2023-03-29T12:37:58.772Z,47.15
2023-03-29T12:41:02.132Z,45.50
2023-03-29T12:43:53.678Z,45.23
2023-03-29T12:47:11.529Z,44.17
2023-03-29T12:49:50.828Z,43.64
2023-03-29T12:52:48.835Z,42.12
2023-03-29T12:55:52.314Z,41.98
2023-03-29T12:59:07.280Z,41.15
2023-03-29T13:02:03.725Z,41.23
2023-03-29T13:08:00.450Z,41.73
2023-03-29T13:10:58.806Z,40.66
2023-03-29T13:13:34.846Z,40.84
2023-03-29T13:16:18.333Z,41.01
2023-03-29T13:19:09.337Z,40.69
2023-03-29T13:21:50.696Z,40.46
2023-03-29T13:24:38.216Z,39.80
2023-03-29T13:27:21.618Z,39.50
2023-03-29T13:30:12.971Z,38.96
2023-03-29T13:32:52.691Z,39.23
2023-03-29T13:35:36.875Z,38.97
2023-03-29T13:38:19.675Z,38.47
2023-03-29T13:41:04.460Z,38.85
2023-03-29T13:43:54.356Z,38.80
2023-03-29T13:46:38.910Z,38.69
2023-03-29T13:49:22.608Z,38.41
2023-03-29T13:52:12.472Z,37.57
2023-03-29T13:54:51.863Z,36.99
2023-03-29T13:57:26.263Z,37.46
2023-03-29T14:00:01.405Z,37.56
2023-03-29T14:02:39.498Z,37.16
2023-03-29T14:05:13.883Z,37.63
2023-03-29T14:07:48.709Z,37.71
2023-03-29T14:10:26.107Z,37.75
2023-03-29T14:13:04.359Z,38.21
2023-03-29T14:15:46.671Z,37.95
2023-03-29T14:18:21.142Z,38.37
2023-03-29T14:20:55.087Z,38.64
2023-03-29T14:23:30.068Z,38.97
2023-03-29T14:26:10.595Z,40.09
2023-03-29T14:28:47.181Z,40.81
2023-03-29T14:31:25.775Z,41.19
2023-03-29T14:33:57.683Z,42.46
2023-03-29T14:36:29.750Z,42.73
2023-03-29T14:39:03.043Z,43.44
2023-03-29T14:41:35.777Z,44.45
2023-03-29T14:44:08.559Z,45.61
2023-03-29T14:46:40.340Z,46.29
2023-03-29T14:49:13.774Z,46.81
2023-03-29T14:51:44.809Z,47.56
2023-03-29T14:54:22.144Z,48.08
2023-03-29T14:56:53.835Z,47.86
2023-03-29T14:59:30.755Z,47.79
2023-03-29T15:02:01.747Z,47.57
2023-03-29T15:04:37.532Z,48.08
2023-03-29T15:07:08.322Z,48.85
2023-03-29T15:09:40.158Z,49.63
2023-03-29T15:12:17.823Z,49.79
2023-03-29T15:14:52.413Z,49.92
2023-03-29T15:17:46.833Z,49.63
2023-03-29T15:20:25.757Z,50.13
2023-03-29T15:23:00.003Z,50.29
2023-03-29T15:25:34.153Z,50.45
2023-03-29T15:28:04.824Z,50.67
2023-03-29T15:30:39.093Z,51.38
2023-03-29T15:33:21.124Z,51.94
2023-03-29T15:35:54.948Z,52.73
2023-03-29T15:38:36.749Z,53.05
2023-03-29T15:41:15.491Z,53.23
2023-03-29T15:43:46.419Z,53.82
2023-03-29T15:46:17.665Z,54.32
2023-03-29T15:48:46.706Z,55.11
2023-03-29T15:51:17.387Z,55.68
2023-03-29T15:53:48.015Z,56.67
2023-03-29T15:56:22.900Z,57.49
2023-03-29T15:58:53.770Z,58.24
2023-03-29T16:01:34.830Z,58.97
2023-03-29T16:04:07.901Z,59.82
2023-03-29T16:06:38.889Z,60.74
2023-03-29T16:09:11.872Z,61.32
2023-03-29T16:11:44.037Z,62.03
2023-03-29T16:14:24.315Z,62.43
2023-03-29T16:16:55.866Z,63.28
2023-03-29T16:19:27.530Z,63.98
2023-03-29T16:21:58.564Z,64.26
2023-03-29T16:24:32.906Z,64.45
2023-03-29T16:27:04.078Z,64.95
2023-03-29T16:29:34.810Z,64.37
2023-03-29T16:32:06.871Z,64.20
2023-03-29T16:34:38.198Z,63.95
2023-03-29T16:37:08.793Z,63.58
2023-03-29T16:39:39.599Z,63.40
2023-03-29T16:42:12.392Z,63.57
2023-03-29T16:44:44.484Z,62.94
2023-03-29T16:47:15.396Z,62.89
2023-03-29T16:49:48.748Z,62.72
2023-03-29T16:52:19.613Z,62.68
2023-03-29T16:54:50.660Z,61.95
2023-03-29T16:57:21.342Z,61.45
2023-03-29T16:59:52.183Z,61.53
2023-03-29T17:02:22.775Z,61.01
2023-03-29T17:04:53.421Z,60.63
2023-03-29T17:07:30.653Z,60.02
2023-03-29T17:10:04.623Z,59.75
2023-03-29T17:12:35.386Z,59.84
2023-03-29T17:15:07.970Z,59.92
2023-03-29T17:17:39.047Z,60.28
2023-03-29T17:20:12.449Z,60.34
2023-03-29T17:22:43.018Z,59.88
2023-03-29T17:25:13.828Z,59.18
2023-03-29T17:27:45.416Z,58.87
2023-03-29T17:30:17.060Z,58.92
2023-03-29T17:32:47.732Z,58.80
2023-03-29T17:35:18.481Z,58.36
2023-03-29T17:37:49.146Z,58.49
2023-03-29T17:40:23.070Z,58.71
2023-03-29T17:42:54.270Z,58.84
2023-03-29T17:45:25.461Z,59.45
2023-03-29T17:47:56.267Z,59.27
2023-03-29T17:50:27.208Z,59.03
2023-03-29T17:52:57.784Z,59.52
2023-03-29T17:55:28.415Z,59.46
2023-03-29T17:57:59.187Z,60.03
2023-03-29T18:00:30.224Z,60.49
2023-03-29T18:03:01.118Z,60.99
2023-03-29T18:05:31.778Z,61.39
2023-03-29T18:08:02.496Z,61.71
2023-03-29T18:10:33.097Z,62.17
2023-03-29T18:13:03.915Z,62.07
2023-03-29T18:15:34.584Z,62.18
2023-03-29T18:18:05.371Z,62.14
2023-03-29T18:20:36.161Z,62.30
2023-03-29T18:23:06.915Z,62.51
2023-03-29T18:25:38.812Z,62.29
2023-03-29T18:28:10.063Z,62.65
2023-03-29T18:30:40.859Z,62.86
2023-03-29T18:33:11.580Z,63.20
2023-03-29T18:35:48.443Z,63.16
2023-03-29T18:38:20.143Z,63.29
2023-03-29T18:40:51.557Z,63.25
2023-03-29T18:43:22.329Z,63.31
2023-03-29T18:45:52.998Z,63.43
2023-03-29T18:48:23.927Z,63.59
2023-03-29T18:50:56.572Z,63.43
2023-03-29T18:53:27.807Z,63.48
2023-03-29T18:56:01.059Z,63.39
2023-03-29T18:58:32.676Z,63.81
2023-03-29T19:01:08.159Z,63.48
2023-03-29T19:03:39.242Z,63.44
2023-03-29T19:06:11.911Z,64.00
2023-03-29T19:08:43.088Z,64.06
2023-03-29T19:11:15.426Z,63.07
2023-03-29T19:13:50.235Z,62.82
2023-03-29T19:16:20.915Z,62.89
2023-03-29T19:18:51.867Z,62.83
2023-03-29T19:21:22.683Z,61.31
2023-03-29T19:23:53.330Z,59.34
2023-03-29T19:26:24.365Z,59.10
2023-03-29T19:28:55.283Z,59.57
2023-03-29T19:31:26.653Z,60.23
2023-03-29T19:33:56.244Z,60.86
2023-03-29T19:36:28.421Z,61.57
2023-03-29T19:38:59.505Z,62.11
2023-03-29T19:41:30.532Z,62.72
2023-03-29T19:44:01.204Z,63.16
2023-03-29T19:46:31.965Z,63.30
2023-03-29T19:49:05.158Z,63.74
2023-03-29T19:51:36.553Z,63.09
2023-03-29T19:54:08.177Z,63.33
2023-03-29T19:56:39.009Z,63.12
2023-03-29T19:59:11.440Z,62.82
2023-03-29T20:01:42.860Z,62.89
2023-03-29T20:04:13.968Z,62.82
2023-03-29T20:06:44.975Z,62.50
2023-03-29T20:09:16.177Z,62.54
2023-03-29T20:11:47.825Z,61.94
2023-03-29T20:14:18.621Z,61.93
2023-03-29T20:16:50.929Z,61.84
2023-03-29T20:19:25.400Z,61.56
2023-03-29T20:21:57.454Z,61.78
2023-03-29T20:24:28.321Z,61.45
2023-03-29T20:27:00.867Z,61.53
2023-03-29T20:29:33.275Z,61.50
2023-03-29T20:32:04.166Z,61.21
2023-03-29T20:34:34.614Z,61.29
2023-03-29T20:37:06.416Z,60.89
2023-03-29T20:39:37.234Z,60.50
2023-03-29T20:42:08.588Z,60.90
2023-03-29T20:44:39.299Z,61.05
2023-03-29T20:47:14.586Z,60.64
2023-03-29T20:49:45.555Z,60.83
2023-03-29T20:52:18.098Z,60.81
2023-03-29T20:54:49.802Z,60.83
2023-03-29T20:57:22.461Z,60.78
2023-03-29T20:59:53.482Z,60.91
2023-03-29T21:02:25.085Z,60.32
2023-03-29T21:05:00.320Z,60.43
2023-03-29T21:07:31.390Z,59.92
2023-03-29T21:10:02.817Z,59.50
2023-03-29T21:12:32.365Z,59.75
2023-03-29T21:15:03.564Z,59.64
2023-03-29T21:17:37.966Z,59.67
2023-03-29T21:20:11.277Z,58.54
2023-03-29T21:22:43.196Z,56.86
2023-03-29T21:25:15.990Z,56.44
2023-03-29T21:27:46.833Z,54.35
2023-03-29T21:30:18.101Z,54.00
2023-03-29T21:32:48.898Z,52.82
2023-03-29T21:35:20.011Z,52.25
2023-03-29T21:37:51.077Z,51.79
2023-03-29T21:40:22.208Z,51.83
2023-03-29T21:42:53.050Z,50.92
2023-03-29T21:45:23.689Z,51.41
2023-03-29T21:47:54.444Z,51.21
2023-03-29T21:50:25.130Z,50.17
2023-03-29T21:52:55.830Z,50.52
2023-03-29T21:55:26.441Z,49.73
2023-03-29T21:57:57.059Z,49.72
2023-03-29T22:00:27.850Z,49.18
2023-03-29T22:02:58.509Z,49.21
2023-03-29T22:05:29.322Z,48.82
2023-03-29T22:08:00.430Z,48.52
2023-03-29T22:10:33.146Z,49.01
2023-03-29T22:13:03.765Z,48.48
2023-03-29T22:15:35.578Z,48.35
2023-03-29T22:18:10.157Z,48.45
2023-03-29T22:20:41.139Z,48.44
2023-03-29T22:23:11.840Z,48.33
2023-03-29T22:25:42.484Z,48.41
2023-03-29T22:28:13.656Z,48.36
2023-03-29T22:30:42.667Z,48.32
2023-03-29T22:33:13.234Z,48.25
2023-03-29T22:35:44.025Z,48.83
2023-03-29T22:38:14.795Z,48.63
2023-03-29T22:40:45.541Z,48.35
2023-03-29T22:43:16.058Z,48.66
2023-03-29T22:45:46.820Z,49.22
2023-03-29T22:48:17.396Z,49.01
2023-03-29T22:50:50.065Z,48.94
2023-03-29T22:53:21.545Z,49.03
2023-03-29T22:55:54.817Z,48.78
2023-03-29T22:58:25.949Z,49.00
2023-03-29T23:00:57.064Z,49.14
2023-03-29T23:03:27.674Z,49.11
2023-03-29T23:06:02.324Z,49.28
2023-03-29T23:08:34.753Z,49.49
2023-03-29T23:11:07.464Z,49.46
2023-03-29T23:13:38.821Z,49.30
2023-03-29T23:16:08.561Z,49.50
2023-03-29T23:18:39.194Z,49.77
2023-03-29T23:21:10.576Z,50.03
2023-03-29T23:23:41.704Z,49.84
2023-03-29T23:26:12.273Z,50.21
2023-03-29T23:28:42.796Z,50.44
2023-03-29T23:31:18.335Z,50.48
2023-03-29T23:33:49.614Z,50.52
2023-03-29T23:36:22.964Z,50.73
2023-03-29T23:38:53.545Z,50.81
2023-03-29T23:41:28.359Z,50.90
2023-03-29T23:43:58.930Z,51.04
2023-03-29T23:46:29.530Z,51.19
2023-03-29T23:49:00.289Z,51.61
2023-03-29T23:51:30.816Z,51.78
2023-03-29T23:54:01.446Z,52.03
2023-03-29T23:56:32.094Z,52.07
2023-03-29T23:59:03.316Z,52.37
